Time;durP1;ratioP1;P1;durP2;ratioP2;P2;SDS_P1;SDS_P2;PMS_P1;PMS_P2;Temp;Humidity;BMP_temperature;BMP_pressure;BME280_temperature;BME280_humidity;BME280_pressure;Samples;Min_cycle;Max_cycle;Signal;HPM_P1;HPM_P2
2022/04/24 00:00:42;;;;;;;;;;;26.10;49.10;;;;;;5143974;27;19914;-48
2022/04/24 00:03:08;;;;;;;;;;;26.10;49.10;;;;;;5144493;27;19903;-49
2022/04/24 00:05:34;;;;;;;;;;;26.10;49.10;;;;;;5144211;27;19907;-48
2022/04/24 00:08:00;;;;;;;;;;;26.10;49.00;;;;;;5165080;27;20257;-48
2022/04/24 00:10:26;;;;;;;;;;;26.10;49.00;;;;;;5164653;27;19907;-48
2022/04/24 00:12:52;;;;;;;;;;;26.10;49.00;;;;;;5164862;27;19907;-47
2022/04/24 00:15:18;;;;;;;;;;;26.10;49.00;;;;;;5164718;27;19914;-47
2022/04/24 00:17:44;;;;;;;;;;;26.10;49.00;;;;;;5158959;27;20287;-48
2022/04/24 00:20:10;;;;;;;;;;;26.10;49.00;;;;;;5163814;27;19960;-48
2022/04/24 00:22:36;;;;;;;;;;;26.10;49.00;;;;;;5164586;27;19914;-48
2022/04/24 00:25:02;;;;;;;;;;;26.00;48.90;;;;;;5155590;27;19903;-48
2022/04/24 00:27:28;;;;;;;;;;;26.10;49.00;;;;;;5143724;27;19925;-48
2022/04/24 00:29:54;;;;;;;;;;;26.10;49.00;;;;;;5143907;27;19915;-48
2022/04/24 00:32:20;;;;;;;;;;;26.00;48.90;;;;;;5143796;27;19907;-48
2022/04/24 00:34:45;;;;;;;;;;;26.00;48.90;;;;;;5143883;27;19912;-47
2022/04/24 00:37:11;;;;;;;;;;;26.00;48.90;;;;;;5151741;27;19907;-48
2022/04/24 00:39:37;;;;;;;;;;;26.00;48.90;;;;;;5164580;27;19911;-52
2022/04/24 00:42:03;;;;;;;;;;;26.00;48.90;;;;;;5146125;27;19908;-48
2022/04/24 00:44:29;;;;;;;;;;;26.00;48.90;;;;;;5152317;27;19940;-48
2022/04/24 00:47:13;;;;;;;;;;;26.00;48.90;;;;;;5145573;27;19946;-48
2022/04/24 00:49:43;;;;;;;;;;;26.00;48.90;;;;;;5164468;27;19906;-47
2022/04/24 00:52:09;;;;;;;;;;;26.00;48.90;;;;;;5145336;27;19903;-47
2022/04/24 00:54:35;;;;;;;;;;;26.00;48.90;;;;;;5162840;27;19907;-49
2022/04/24 00:57:01;;;;;;;;;;;25.90;48.90;;;;;;5151957;27;19926;-49
2022/04/24 00:59:27;;;;;;;;;;;25.90;48.90;;;;;;5164146;27;20012;-46
2022/04/24 01:01:53;;;;;;;;;;;26.00;48.90;;;;;;5164166;27;19907;-47
2022/04/24 01:04:18;;;;;;;;;;;25.90;48.80;;;;;;5163993;27;19903;-53
2022/04/24 01:06:44;;;;;;;;;;;25.90;48.90;;;;;;5158672;27;19940;-47
2022/04/24 01:09:11;;;;;;;;;;;25.90;48.90;;;;;;5164078;27;19997;-48
2022/04/24 01:11:37;;;;;;;;;;;25.90;48.90;;;;;;5163797;27;19907;-48
2022/04/24 01:14:03;;;;;;;;;;;25.90;48.90;;;;;;5164045;27;19914;-50
2022/04/24 01:16:29;;;;;;;;;;;25.90;48.90;;;;;;5163970;27;19922;-49
2022/04/24 01:18:55;;;;;;;;;;;25.90;49.00;;;;;;5164220;27;19915;-48
2022/04/24 01:21:21;;;;;;;;;;;25.80;48.90;;;;;;5163878;27;19946;-47
2022/04/24 01:23:47;;;;;;;;;;;25.80;48.90;;;;;;5163961;27;19907;-47
2022/04/24 01:26:12;;;;;;;;;;;25.80;48.90;;;;;;5163823;27;19910;-50
2022/04/24 01:28:38;;;;;;;;;;;25.80;48.90;;;;;;5164223;27;19913;-49
2022/04/24 01:31:05;;;;;;;;;;;25.80;48.90;;;;;;5163853;27;19907;-49
2022/04/24 01:33:31;;;;;;;;;;;25.80;48.90;;;;;;5167945;27;19932;-49
2022/04/24 01:35:57;;;;;;;;;;;25.80;48.80;;;;;;5167678;27;19940;-48
2022/04/24 01:38:23;;;;;;;;;;;25.80;48.80;;;;;;5167901;27;20010;-47
2022/04/24 01:40:49;;;;;;;;;;;25.70;48.60;;;;;;5167788;27;19943;-49
2022/04/24 01:43:16;;;;;;;;;;;25.70;48.70;;;;;;5167465;27;19906;-47
2022/04/24 01:45:45;;;;;;;;;;;25.70;48.60;;;;;;5167587;27;20434;-47
2022/04/24 01:48:11;;;;;;;;;;;25.70;48.60;;;;;;5167689;27;19946;-48
2022/04/24 01:50:36;;;;;;;;;;;25.70;48.60;;;;;;5167237;27;19913;-49
2022/04/24 01:53:02;;;;;;;;;;;25.70;48.60;;;;;;5167174;27;19948;-48
2022/04/24 01:55:28;;;;;;;;;;;25.60;48.60;;;;;;5166637;27;19922;-46
2022/04/24 01:57:54;;;;;;;;;;;25.60;48.50;;;;;;5167362;27;19959;-47
2022/04/24 02:00:20;;;;;;;;;;;25.60;48.50;;;;;;5167456;27;19903;-47
2022/04/24 02:02:47;;;;;;;;;;;25.60;48.50;;;;;;5167347;27;19907;-49
2022/04/24 02:05:13;;;;;;;;;;;25.60;48.50;;;;;;5167281;27;19907;-48
2022/04/24 02:07:39;;;;;;;;;;;25.60;48.50;;;;;;5167431;27;19951;-47
2022/04/24 02:10:05;;;;;;;;;;;25.50;48.40;;;;;;5167324;27;19907;-48
2022/04/24 02:12:31;;;;;;;;;;;25.50;49.00;;;;;;5166890;27;19974;-50
2022/04/24 02:14:57;;;;;;;;;;;25.50;48.40;;;;;;5167101;27;19907;-47
2022/04/24 02:17:22;;;;;;;;;;;25.50;48.40;;;;;;5148410;27;19919;-48
2022/04/24 02:19:48;;;;;;;;;;;25.50;48.40;;;;;;5167232;27;19903;-47
2022/04/24 02:22:14;;;;;;;;;;;25.40;48.40;;;;;;5166914;27;19911;-48
2022/04/24 02:24:40;;;;;;;;;;;25.40;48.50;;;;;;5159351;27;19911;-48
2022/04/24 02:27:06;;;;;;;;;;;25.40;48.50;;;;;;5151706;27;19907;-49
2022/04/24 02:29:33;;;;;;;;;;;25.40;49.00;;;;;;5166803;27;19906;-49
2022/04/24 02:31:59;;;;;;;;;;;25.40;48.50;;;;;;5166989;27;19906;-47
2022/04/24 02:34:26;;;;;;;;;;;25.40;48.50;;;;;;5166651;27;19974;-49
2022/04/24 02:36:52;;;;;;;;;;;25.30;48.40;;;;;;5166614;27;19953;-48
2022/04/24 02:39:18;;;;;;;;;;;25.30;48.50;;;;;;5166418;27;20000;-48
2022/04/24 02:41:44;;;;;;;;;;;25.30;48.50;;;;;;5166858;27;19910;-49
2022/04/24 02:44:10;;;;;;;;;;;25.30;48.50;;;;;;5165715;27;19907;-49
2022/04/24 02:46:36;;;;;;;;;;;25.20;48.40;;;;;;5166726;27;19956;-48
2022/04/24 02:49:01;;;;;;;;;;;25.20;48.40;;;;;;5166786;27;19903;-48
2022/04/24 02:51:27;;;;;;;;;;;25.20;48.50;;;;;;5166162;27;19906;-47
2022/04/24 02:53:53;;;;;;;;;;;25.20;48.50;;;;;;5166126;27;19903;-47
2022/04/24 02:56:19;;;;;;;;;;;25.20;48.50;;;;;;5145920;27;19928;-47
2022/04/24 02:58:45;;;;;;;;;;;25.20;48.50;;;;;;5165099;27;20286;-47
2022/04/24 03:01:11;;;;;;;;;;;25.10;48.50;;;;;;5166354;27;19907;-48
2022/04/24 03:03:38;;;;;;;;;;;25.10;48.50;;;;;;5166137;27;19911;-47
2022/04/24 03:06:04;;;;;;;;;;;25.10;48.50;;;;;;5161403;27;19907;-47
2022/04/24 03:08:30;;;;;;;;;;;25.10;48.50;;;;;;5145606;27;19979;-47
2022/04/24 03:10:56;;;;;;;;;;;25.00;48.40;;;;;;5157267;27;19914;-49
2022/04/24 03:13:22;;;;;;;;;;;25.00;48.50;;;;;;5165889;27;19907;-47
2022/04/24 03:15:48;;;;;;;;;;;25.00;48.50;;;;;;5165437;27;19966;-48
2022/04/24 03:18:14;;;;;;;;;;;25.00;48.50;;;;;;5165876;27;19919;-47
2022/04/24 03:20:39;;;;;;;;;;;25.00;48.50;;;;;;5166157;27;19903;-47
2022/04/24 03:23:05;;;;;;;;;;;24.90;48.50;;;;;;5165789;27;19907;-47
2022/04/24 03:25:31;;;;;;;;;;;24.90;48.50;;;;;;5151222;27;19915;-48
2022/04/24 03:27:57;;;;;;;;;;;24.90;48.60;;;;;;5157800;27;19911;-47
2022/04/24 03:30:23;;;;;;;;;;;24.90;48.50;;;;;;5165626;27;19903;-48
2022/04/24 03:32:49;;;;;;;;;;;24.80;48.50;;;;;;5165926;27;19994;-49
2022/04/24 03:35:14;;;;;;;;;;;24.80;48.50;;;;;;5165535;27;19921;-46
2022/04/24 03:37:42;;;;;;;;;;;24.80;48.50;;;;;;5165401;27;19914;-48
2022/04/24 03:40:08;;;;;;;;;;;24.80;48.50;;;;;;5165573;27;20383;-48
2022/04/24 03:42:35;;;;;;;;;;;24.80;48.50;;;;;;5165396;27;19907;-47
2022/04/24 03:45:01;;;;;;;;;;;24.80;48.60;;;;;;5165414;27;19903;-48
2022/04/24 03:47:27;;;;;;;;;;;24.80;48.60;;;;;;5165397;27;19917;-49
2022/04/24 03:49:53;;;;;;;;;;;24.70;48.60;;;;;;5165404;27;19966;-47
2022/04/24 03:52:19;;;;;;;;;;;24.70;48.60;;;;;;5164962;27;19935;-47
2022/04/24 03:54:45;;;;;;;;;;;24.70;48.60;;;;;;5163735;27;19907;-48
2022/04/24 03:57:11;;;;;;;;;;;24.60;48.60;;;;;;5164465;27;19921;-48
2022/04/24 03:59:37;;;;;;;;;;;24.60;48.60;;;;;;5165355;27;20009;-47
2022/04/24 04:02:03;;;;;;;;;;;24.60;48.70;;;;;;5165242;27;19914;-47
2022/04/24 04:04:29;;;;;;;;;;;24.60;48.70;;;;;;5165493;27;20330;-48
2022/04/24 04:06:55;;;;;;;;;;;24.60;48.70;;;;;;5164489;27;19918;-46
2022/04/24 04:09:21;;;;;;;;;;;24.60;48.70;;;;;;5165093;27;19921;-49
2022/04/24 04:11:47;;;;;;;;;;;24.50;48.70;;;;;;5165140;27;19938;-52
2022/04/24 04:14:13;;;;;;;;;;;24.50;48.80;;;;;;5164908;27;19906;-48
2022/04/24 04:16:39;;;;;;;;;;;24.50;48.80;;;;;;5164404;27;19978;-47
2022/04/24 04:19:05;;;;;;;;;;;24.50;48.80;;;;;;5164736;27;20010;-47
2022/04/24 04:21:31;;;;;;;;;;;24.50;48.80;;;;;;5164925;27;19917;-49
2022/04/24 04:23:57;;;;;;;;;;;24.40;48.80;;;;;;5164748;27;19907;-52
2022/04/24 04:26:22;;;;;;;;;;;24.40;48.80;;;;;;5143986;27;19948;-51
2022/04/24 04:28:48;;;;;;;;;;;24.40;48.80;;;;;;5164112;27;19903;-47
2022/04/24 04:31:14;;;;;;;;;;;24.40;48.80;;;;;;5164682;27;19911;-48
2022/04/24 04:33:41;;;;;;;;;;;24.40;48.80;;;;;;5165137;27;19907;-47
2022/04/24 04:36:06;;;;;;;;;;;24.30;48.80;;;;;;5164543;27;19907;-48
2022/04/24 04:38:32;;;;;;;;;;;24.30;48.90;;;;;;5164388;27;19935;-49
2022/04/24 04:40:58;;;;;;;;;;;24.30;48.90;;;;;;5164707;27;19907;-48
2022/04/24 04:43:27;;;;;;;;;;;24.30;48.90;;;;;;5164282;27;19906;-48
2022/04/24 04:45:53;;;;;;;;;;;24.20;48.90;;;;;;5164213;27;19910;-48
2022/04/24 04:48:19;;;;;;;;;;;24.20;48.90;;;;;;5164331;27;19914;-47
2022/04/24 04:50:45;;;;;;;;;;;24.20;48.90;;;;;;5164573;27;19907;-47
2022/04/24 04:53:11;;;;;;;;;;;24.20;48.90;;;;;;5164579;27;19907;-50
2022/04/24 04:55:37;;;;;;;;;;;24.10;48.90;;;;;;5163475;27;19929;-48
2022/04/24 04:58:03;;;;;;;;;;;24.10;48.90;;;;;;5163838;27;19911;-49
2022/04/24 05:00:28;;;;;;;;;;;24.10;49.00;;;;;;5164571;27;19907;-47
2022/04/24 05:02:54;;;;;;;;;;;24.10;49.00;;;;;;5164687;27;19907;-47
2022/04/24 05:05:20;;;;;;;;;;;24.10;49.10;;;;;;5164441;27;19910;-47
2022/04/24 05:07:47;;;;;;;;;;;24.10;49.00;;;;;;5166879;27;19914;-48
2022/04/24 05:10:13;;;;;;;;;;;24.10;49.00;;;;;;5168574;27;19934;-47
2022/04/24 05:12:38;;;;;;;;;;;24.00;49.00;;;;;;5168384;27;19929;-47
2022/04/24 05:15:08;;;;;;;;;;;24.00;49.00;;;;;;5168107;27;19907;-48
2022/04/24 05:17:34;;;;;;;;;;;24.00;49.00;;;;;;5168005;27;19919;-48
2022/04/24 05:20:00;;;;;;;;;;;24.00;49.10;;;;;;5168186;27;19911;-49
2022/04/24 05:22:26;;;;;;;;;;;24.00;49.10;;;;;;5168175;27;19903;-49
2022/04/24 05:24:52;;;;;;;;;;;23.90;49.10;;;;;;5159659;27;19908;-47
2022/04/24 05:27:19;;;;;;;;;;;23.90;49.10;;;;;;5154081;27;19974;-47
2022/04/24 05:29:45;;;;;;;;;;;23.90;49.10;;;;;;5168305;27;19968;-47
2022/04/24 05:32:11;;;;;;;;;;;23.90;49.60;;;;;;5168095;27;20025;-49
2022/04/24 05:34:37;;;;;;;;;;;23.90;49.20;;;;;;5167983;27;19914;-48
2022/04/24 05:37:03;;;;;;;;;;;23.90;49.10;;;;;;5161833;27;19959;-51
2022/04/24 05:39:29;;;;;;;;;;;23.80;49.20;;;;;;5168015;27;19911;-49
2022/04/24 05:41:55;;;;;;;;;;;23.80;49.20;;;;;;5167754;27;19907;-47
2022/04/24 05:44:21;;;;;;;;;;;23.80;49.20;;;;;;5167894;27;19943;-48
2022/04/24 05:46:47;;;;;;;;;;;23.80;49.20;;;;;;5167727;27;19903;-48
2022/04/24 05:49:13;;;;;;;;;;;23.80;49.20;;;;;;5167521;27;19907;-49
2022/04/24 05:51:38;;;;;;;;;;;23.70;49.20;;;;;;5167669;27;19907;-47
2022/04/24 05:54:04;;;;;;;;;;;23.70;49.20;;;;;;5166950;27;19967;-48
2022/04/24 05:56:30;;;;;;;;;;;23.70;49.80;;;;;;5167521;27;19907;-47
2022/04/24 05:58:56;;;;;;;;;;;23.70;49.30;;;;;;5166723;27;19946;-49
2022/04/24 06:01:22;;;;;;;;;;;23.60;49.20;;;;;;5166376;27;19928;-48
2022/04/24 06:03:48;;;;;;;;;;;23.60;49.30;;;;;;5167600;27;19978;-48
2022/04/24 06:06:14;;;;;;;;;;;23.60;49.30;;;;;;5161364;27;19904;-51
2022/04/24 06:08:40;;;;;;;;;;;23.60;49.30;;;;;;5146427;27;19914;-48
2022/04/24 06:11:06;;;;;;;;;;;23.60;49.30;;;;;;5160262;27;19907;-47
2022/04/24 06:13:32;;;;;;;;;;;23.60;49.30;;;;;;5167373;27;19910;-49
2022/04/24 06:15:57;;;;;;;;;;;23.60;49.40;;;;;;5167018;27;19926;-48
2022/04/24 06:18:27;;;;;;;;;;;23.60;49.40;;;;;;5165774;27;19945;-48
2022/04/24 06:20:52;;;;;;;;;;;23.50;49.30;;;;;;5166987;27;19907;-48
2022/04/24 06:23:18;;;;;;;;;;;23.50;49.40;;;;;;5167140;27;19947;-47
2022/04/24 06:25:44;;;;;;;;;;;23.50;49.40;;;;;;5152054;27;19914;-48
2022/04/24 06:28:10;;;;;;;;;;;23.50;49.40;;;;;;5160407;27;19907;-48
2022/04/24 06:30:40;;;;;;;;;;;23.50;49.40;;;;;;5166653;27;19966;-48
2022/04/24 06:33:11;;;;;;;;;;;23.50;49.40;;;;;;5167017;27;19903;-47
2022/04/24 06:35:37;;;;;;;;;;;23.40;49.50;;;;;;5166960;27;19911;-48
2022/04/24 06:38:04;;;;;;;;;;;23.40;49.50;;;;;;5166393;27;19918;-47
2022/04/24 06:40:30;;;;;;;;;;;23.40;49.40;;;;;;5166929;27;19948;-48
2022/04/24 06:42:57;;;;;;;;;;;23.40;49.50;;;;;;5166766;27;19976;-49
2022/04/24 06:45:25;;;;;;;;;;;23.40;49.60;;;;;;5166372;27;19907;-51
2022/04/24 06:48:00;;;;;;;;;;;23.30;49.50;;;;;;5166601;27;20604;-47
2022/04/24 06:53:11;;;;;;;;;;;23.30;49.50;;;;;;5148894;27;19927;-49
2022/04/24 06:55:38;;;;;;;;;;;23.30;49.60;;;;;;5165417;27;19911;-48
2022/04/24 06:58:04;;;;;;;;;;;23.30;49.60;;;;;;5166214;27;19922;-49
2022/04/24 07:00:30;;;;;;;;;;;23.30;49.60;;;;;;5165923;27;19907;-48
2022/04/24 07:02:56;;;;;;;;;;;23.20;49.60;;;;;;5166140;27;19913;-48
2022/04/24 07:05:23;;;;;;;;;;;23.20;49.60;;;;;;5166339;27;19978;-48
2022/04/24 07:07:49;;;;;;;;;;;23.20;49.60;;;;;;5165883;27;19907;-48
2022/04/24 07:10:14;;;;;;;;;;;23.20;49.70;;;;;;5165803;27;19924;-49
2022/04/24 07:12:53;;;;;;;;;;;23.20;49.70;;;;;;5166265;27;19903;-49
2022/04/24 07:15:19;;;;;;;;;;;23.10;49.60;;;;;;5165865;27;19906;-47
2022/04/24 07:17:45;;;;;;;;;;;23.10;49.70;;;;;;5165969;27;19919;-49
2022/04/24 07:20:12;;;;;;;;;;;23.10;49.70;;;;;;5165802;27;19928;-47
2022/04/24 07:22:53;;;;;;;;;;;23.10;49.70;;;;;;5166047;27;20005;-47
2022/04/24 07:25:20;;;;;;;;;;;23.00;49.70;;;;;;5153487;27;19911;-50
2022/04/24 07:27:46;;;;;;;;;;;23.10;49.80;;;;;;5156113;27;19907;-49
2022/04/24 07:30:15;;;;;;;;;;;23.00;49.70;;;;;;5165369;27;19921;-49
2022/04/24 07:32:44;;;;;;;;;;;23.00;49.70;;;;;;5166174;27;19915;-48
2022/04/24 07:35:11;;;;;;;;;;;23.00;49.80;;;;;;5165853;27;19978;-47
2022/04/24 07:37:37;;;;;;;;;;;23.00;49.90;;;;;;5165565;27;19907;-48
2022/04/24 07:40:06;;;;;;;;;;;23.00;49.80;;;;;;5165382;27;19979;-48
2022/04/24 07:42:32;;;;;;;;;;;23.00;49.80;;;;;;5165622;27;19903;-49
2022/04/24 07:44:58;;;;;;;;;;;22.90;49.80;;;;;;5146540;27;20477;-48
2022/04/24 07:47:24;;;;;;;;;;;22.90;49.90;;;;;;5165742;27;19907;-48
2022/04/24 07:49:49;;;;;;;;;;;22.90;49.90;;;;;;5165181;27;19922;-49
2022/04/24 07:52:15;;;;;;;;;;;22.90;49.90;;;;;;5165407;27;19906;-48
2022/04/24 07:54:41;;;;;;;;;;;22.80;49.90;;;;;;5158576;27;19911;-48
2022/04/24 07:57:07;;;;;;;;;;;22.80;49.90;;;;;;5153067;27;19911;-49
2022/04/24 07:59:34;;;;;;;;;;;22.80;49.90;;;;;;5164577;27;19922;-47
2022/04/24 08:02:00;;;;;;;;;;;22.80;50.00;;;;;;5165191;27;19914;-47
2022/04/24 08:04:26;;;;;;;;;;;22.80;49.90;;;;;;5165318;27;19926;-47
2022/04/24 08:06:51;;;;;;;;;;;22.80;50.00;;;;;;5159071;27;20020;-50
2022/04/24 08:09:17;;;;;;;;;;;22.80;50.30;;;;;;5164854;27;19911;-50
2022/04/24 08:11:43;;;;;;;;;;;22.80;50.70;;;;;;5165135;27;19906;-48
2022/04/24 08:14:09;;;;;;;;;;;22.80;51.00;;;;;;5164987;27;19907;-48
2022/04/24 08:16:35;;;;;;;;;;;22.80;51.10;;;;;;5164821;27;20010;-50
2022/04/24 08:19:01;;;;;;;;;;;22.80;51.20;;;;;;5164912;27;19911;-47
2022/04/24 08:21:27;;;;;;;;;;;22.80;51.00;;;;;;5164727;27;19928;-48
2022/04/24 08:23:52;;;;;;;;;;;22.80;51.00;;;;;;5164976;27;19907;-50
2022/04/24 08:26:18;;;;;;;;;;;22.70;51.00;;;;;;5144792;27;19907;-53
2022/04/24 08:28:44;;;;;;;;;;;22.70;50.90;;;;;;5163401;27;19911;-49
2022/04/24 08:31:10;;;;;;;;;;;22.70;50.90;;;;;;5164426;27;19989;-48
2022/04/24 08:33:36;;;;;;;;;;;22.70;51.00;;;;;;5165083;27;19995;-47
2022/04/24 08:36:02;;;;;;;;;;;22.70;51.50;;;;;;5164801;27;19907;-49
2022/04/24 08:38:27;;;;;;;;;;;22.70;51.70;;;;;;5164654;27;19915;-47
2022/04/24 08:40:53;;;;;;;;;;;22.70;51.80;;;;;;5164352;27;19907;-47
2022/04/24 08:43:19;;;;;;;;;;;22.70;51.80;;;;;;5164594;27;19955;-48
2022/04/24 08:45:46;;;;;;;;;;;22.70;51.70;;;;;;5145865;27;19913;-47
2022/04/24 08:48:11;;;;;;;;;;;22.70;51.60;;;;;;5165151;27;19956;-48
2022/04/24 08:50:37;;;;;;;;;;;22.70;51.60;;;;;;5164396;27;20312;-47
2022/04/24 08:53:03;;;;;;;;;;;22.70;51.50;;;;;;5145917;27;19907;-47
2022/04/24 08:55:30;;;;;;;;;;;22.70;51.60;;;;;;5164162;27;19914;-49
2022/04/24 08:57:56;;;;;;;;;;;22.70;52.00;;;;;;5164324;27;19915;-49
2022/04/24 09:00:22;;;;;;;;;;;22.70;52.10;;;;;;5163865;27;19910;-48
2022/04/24 09:02:48;;;;;;;;;;;22.70;52.30;;;;;;5145904;27;19912;-47
2022/04/24 09:05:14;;;;;;;;;;;22.70;52.10;;;;;;5164206;27;19903;-47
2022/04/24 09:07:43;;;;;;;;;;;22.70;52.10;;;;;;5164399;27;20005;-48
2022/04/24 09:10:11;;;;;;;;;;;22.70;52.10;;;;;;5157147;27;19974;-49
2022/04/24 09:12:38;;;;;;;;;;;22.70;51.90;;;;;;5143815;28;20366;-48
2022/04/24 09:15:04;;;;;;;;;;;22.70;51.90;;;;;;5143654;28;19908;-47
2022/04/24 09:17:30;;;;;;;;;;;22.70;51.90;;;;;;5156533;27;19919;-47
2022/04/24 09:19:56;;;;;;;;;;;22.70;51.80;;;;;;5164554;27;19910;-47
2022/04/24 09:22:22;;;;;;;;;;;22.70;51.80;;;;;;5164073;27;19930;-47
2022/04/24 09:24:49;;;;;;;;;;;22.70;51.80;;;;;;5156181;27;19912;-47
2022/04/24 09:27:34;;;;;;;;;;;22.70;51.80;;;;;;5150215;27;19907;-47
2022/04/24 09:30:00;;;;;;;;;;;22.70;52.10;;;;;;5164244;27;19950;-48
2022/04/24 09:32:27;;;;;;;;;;;22.70;52.40;;;;;;5163870;27;19907;-49
2022/04/24 09:34:53;;;;;;;;;;;22.70;52.40;;;;;;5164385;27;19971;-47
2022/04/24 09:37:19;;;;;;;;;;;22.70;52.50;;;;;;5164084;27;20513;-50
2022/04/24 09:39:45;;;;;;;;;;;22.70;52.40;;;;;;5164397;27;19915;-48
2022/04/24 09:42:11;;;;;;;;;;;22.70;52.40;;;;;;5163815;27;20252;-47
2022/04/24 09:44:44;;;;;;;;;;;22.70;52.20;;;;;;5163996;27;19907;-48
2022/04/24 09:47:11;;;;;;;;;;;22.70;52.10;;;;;;5164095;27;19907;-47
2022/04/24 09:49:40;;;;;;;;;;;22.70;52.10;;;;;;5164133;27;19928;-47
2022/04/24 09:52:13;;;;;;;;;;;22.70;52.40;;;;;;5163859;27;19911;-47
2022/04/24 09:54:39;;;;;;;;;;;22.70;52.60;;;;;;5159786;27;19963;-47
2022/04/24 09:57:06;;;;;;;;;;;22.70;52.60;;;;;;5152384;27;19914;-47
2022/04/24 09:59:32;;;;;;;;;;;22.70;52.60;;;;;;5167714;27;19922;-48
2022/04/24 10:01:58;;;;;;;;;;;22.70;52.60;;;;;;5167029;27;19911;-48
2022/04/24 10:04:24;;;;;;;;;;;22.70;52.60;;;;;;5167708;27;19946;-47
2022/04/24 10:06:49;;;;;;;;;;;22.70;52.50;;;;;;5167235;27;19907;-48
2022/04/24 10:09:16;;;;;;;;;;;22.70;52.30;;;;;;5148731;27;19910;-47
2022/04/24 10:11:42;;;;;;;;;;;22.70;52.20;;;;;;5167467;27;19907;-48
2022/04/24 10:14:08;;;;;;;;;;;22.70;52.50;;;;;;5148667;27;19928;-48
2022/04/24 10:16:58;;;;;;;;;;;22.70;52.70;;;;;;5167468;27;19922;-46
2022/04/24 10:19:42;;;;;;;;;;;22.70;52.70;;;;;;5148882;27;19959;-47
2022/04/24 10:22:17;;;;;;;;;;;22.70;52.70;;;;;;5166951;27;20021;-48
2022/04/24 10:24:43;;;;;;;;;;;22.70;52.80;;;;;;5160070;27;19907;-46
2022/04/24 10:27:11;;;;;;;;;;;22.70;52.60;;;;;;5152325;27;19914;-47
2022/04/24 10:29:50;;;;;;;;;;;22.70;52.40;;;;;;5167120;27;20055;-47
2022/04/24 10:32:26;;;;;;;;;;;22.70;52.40;;;;;;5147857;27;19949;-47
2022/04/24 10:34:52;;;;;;;;;;;22.70;52.60;;;;;;5167247;27;19910;-48
2022/04/24 10:37:25;;;;;;;;;;;22.70;52.80;;;;;;5167030;27;19907;-47
2022/04/24 10:39:54;;;;;;;;;;;22.70;52.80;;;;;;5166628;27;19972;-47
2022/04/24 10:42:27;;;;;;;;;;;22.70;52.90;;;;;;5166813;27;19993;-47
2022/04/24 10:44:57;;;;;;;;;;;22.70;52.80;;;;;;5166821;27;19943;-48
2022/04/24 10:47:23;;;;;;;;;;;22.70;52.70;;;;;;5166809;27;19903;-48
2022/04/24 10:49:49;;;;;;;;;;;22.70;52.50;;;;;;5167026;27;19953;-48
2022/04/24 10:52:15;;;;;;;;;;;22.70;52.40;;;;;;5166647;27;20317;-47
2022/04/24 10:54:41;;;;;;;;;;;22.70;52.50;;;;;;5160445;27;19907;-48
2022/04/24 10:57:19;;;;;;;;;;;22.70;52.70;;;;;;5151417;27;19955;-47
2022/04/24 10:59:49;;;;;;;;;;;22.70;52.90;;;;;;5166642;27;19921;-48
2022/04/24 11:02:19;;;;;;;;;;;22.70;52.80;;;;;;5166175;27;19914;-46
2022/04/24 11:04:45;;;;;;;;;;;22.70;52.90;;;;;;5166129;27;19911;-47
2022/04/24 11:07:18;;;;;;;;;;;22.70;52.80;;;;;;5166285;27;19939;-47
2022/04/24 11:09:44;;;;;;;;;;;22.70;52.70;;;;;;5164031;27;19910;-50
2022/04/24 11:12:11;;;;;;;;;;;22.70;52.70;;;;;;5166317;27;20247;-48
2022/04/24 11:14:37;;;;;;;;;;;22.70;52.50;;;;;;5166130;27;19907;-48
2022/04/24 11:17:04;;;;;;;;;;;22.70;52.60;;;;;;5166222;27;19919;-47
2022/04/24 11:19:31;;;;;;;;;;;22.70;52.70;;;;;;5165971;27;19936;-46
2022/04/24 11:22:01;;;;;;;;;;;22.70;52.90;;;;;;5166099;27;19914;-46
2022/04/24 11:24:27;;;;;;;;;;;22.70;52.80;;;;;;5160859;27;19907;-48
2022/04/24 11:26:54;;;;;;;;;;;22.70;52.90;;;;;;5148909;27;19903;-47
2022/04/24 11:29:23;;;;;;;;;;;22.60;52.80;;;;;;5165944;27;19966;-48
2022/04/24 11:31:55;;;;;;;;;;;22.70;52.80;;;;;;5165752;27;19972;-48
2022/04/24 11:34:21;;;;;;;;;;;22.70;52.60;;;;;;5165444;27;19907;-47
2022/04/24 11:36:48;;;;;;;;;;;22.70;52.70;;;;;;5147410;27;19911;-47
2022/04/24 11:39:13;;;;;;;;;;;22.70;52.80;;;;;;5165565;27;19958;-47
2022/04/24 11:41:40;;;;;;;;;;;22.70;52.90;;;;;;5165941;27;19907;-47
2022/04/24 11:52:20;;;;;;;;;;;22.60;52.80;;;;;;5165664;27;19928;-46
2022/04/24 11:54:49;;;;;;;;;;;22.60;52.60;;;;;;5164663;27;19910;-48
2022/04/24 11:57:14;;;;;;;;;;;22.60;52.50;;;;;;5146716;27;19910;-46
2022/04/24 11:59:40;;;;;;;;;;;22.60;52.60;;;;;;5165421;27;19960;-47
2022/04/24 12:02:07;;;;;;;;;;;22.70;52.80;;;;;;5165351;27;19914;-47
2022/04/24 12:04:38;;;;;;;;;;;22.70;53.00;;;;;;5146290;27;19997;-44
2022/04/24 12:07:07;;;;;;;;;;;22.70;52.90;;;;;;5151676;27;19907;-47
2022/04/24 12:09:33;;;;;;;;;;;22.70;52.90;;;;;;5161595;27;20344;-47
2022/04/24 12:12:09;;;;;;;;;;;22.60;52.90;;;;;;5165292;27;20009;-48
2022/04/24 12:14:35;;;;;;;;;;;22.60;52.90;;;;;;5164908;27;19907;-47
2022/04/24 12:17:08;;;;;;;;;;;22.60;52.80;;;;;;5164158;27;19939;-47
2022/04/24 12:19:34;;;;;;;;;;;22.60;52.80;;;;;;5164871;27;19915;-47
2022/04/24 12:22:04;;;;;;;;;;;22.70;52.90;;;;;;5165111;27;19907;-48
2022/04/24 12:24:37;;;;;;;;;;;22.70;53.10;;;;;;5160032;27;19922;-47
2022/04/24 12:27:03;;;;;;;;;;;22.70;53.00;;;;;;5149083;27;19910;-47
2022/04/24 12:29:38;;;;;;;;;;;22.70;53.00;;;;;;5164590;27;19942;-47
2022/04/24 12:32:07;;;;;;;;;;;22.70;53.00;;;;;;5146249;27;19907;-46
2022/04/24 12:34:36;;;;;;;;;;;22.70;53.00;;;;;;5164489;27;20438;-48
2022/04/24 12:37:02;;;;;;;;;;;22.60;52.90;;;;;;5164720;27;19907;-51
2022/04/24 12:39:28;;;;;;;;;;;22.60;52.90;;;;;;5164297;27;19936;-48
2022/04/24 12:41:54;;;;;;;;;;;22.60;52.80;;;;;;5164815;27;19914;-48
2022/04/24 12:44:20;;;;;;;;;;;22.70;52.90;;;;;;5164569;27;19907;-48
2022/04/24 12:46:49;;;;;;;;;;;22.70;53.20;;;;;;5164537;27;19983;-50
2022/04/24 12:49:17;;;;;;;;;;;22.70;53.20;;;;;;5164070;27;19913;-49
2022/04/24 12:51:43;;;;;;;;;;;22.70;53.10;;;;;;5145976;27;20391;-48
2022/04/24 12:54:09;;;;;;;;;;;22.70;53.00;;;;;;5161820;27;19907;-47
2022/04/24 12:56:37;;;;;;;;;;;22.70;53.00;;;;;;5164040;27;19987;-47
2022/04/24 12:59:04;;;;;;;;;;;22.70;53.00;;;;;;5164175;27;19952;-48
2022/04/24 13:01:30;;;;;;;;;;;22.70;53.00;;;;;;5164048;27;19929;-47
2022/04/24 13:03:56;;;;;;;;;;;22.70;53.00;;;;;;5164326;27;19907;-47
2022/04/24 13:06:28;;;;;;;;;;;22.70;53.00;;;;;;5158208;27;19911;-48
2022/04/24 13:08:54;;;;;;;;;;;22.70;53.20;;;;;;5164443;27;19903;-48
2022/04/24 13:11:23;;;;;;;;;;;22.80;53.40;;;;;;5164218;27;19914;-48
2022/04/24 13:13:52;;;;;;;;;;;22.80;53.30;;;;;;5163902;27;19903;-47
2022/04/24 13:19:02;;;;;;;;;;;22.80;53.20;;;;;;5164218;27;19942;-51
2022/04/24 13:21:28;;;;;;;;;;;22.80;53.10;;;;;;5164209;27;19911;-47
2022/04/24 13:23:54;;;;;;;;;;;22.80;53.10;;;;;;5163668;27;19928;-50
2022/04/24 13:26:22;;;;;;;;;;;22.80;53.20;;;;;;5143390;28;20646;-47
2022/04/24 13:28:48;;;;;;;;;;;22.80;53.10;;;;;;5166120;27;20385;-49
2022/04/24 13:31:14;;;;;;;;;;;22.80;53.20;;;;;;5168048;27;20400;-47
2022/04/24 13:33:40;;;;;;;;;;;22.80;53.20;;;;;;5168170;27;19982;-51
2022/04/24 13:36:06;;;;;;;;;;;22.80;53.10;;;;;;5163143;27;19911;-48
2022/04/24 13:38:35;;;;;;;;;;;22.80;53.30;;;;;;5166884;27;19919;-49
2022/04/24 13:41:02;;;;;;;;;;;22.90;53.70;;;;;;5167816;27;20694;-51
2022/04/24 13:43:28;;;;;;;;;;;22.90;53.70;;;;;;5167647;27;19911;-48
2022/04/24 13:45:54;;;;;;;;;;;22.90;53.60;;;;;;5167876;27;19957;-47
2022/04/24 13:48:24;;;;;;;;;;;22.90;53.50;;;;;;5149079;27;19907;-48
2022/04/24 13:50:50;;;;;;;;;;;22.90;53.40;;;;;;5167349;27;20517;-50
2022/04/24 13:53:16;;;;;;;;;;;22.90;53.40;;;;;;5167489;27;19914;-51
2022/04/24 13:55:43;;;;;;;;;;;23.00;53.50;;;;;;5152605;27;20420;-50
2022/04/24 13:58:09;;;;;;;;;;;22.90;53.40;;;;;;5161202;27;20453;-48
2022/04/24 14:00:35;;;;;;;;;;;23.00;53.40;;;;;;5167143;27;19907;-47
2022/04/24 14:03:04;;;;;;;;;;;23.00;53.40;;;;;;5167213;27;20347;-47
2022/04/24 14:05:31;;;;;;;;;;;23.00;53.40;;;;;;5167356;27;19907;-50
2022/04/24 14:07:56;;;;;;;;;;;23.00;53.40;;;;;;5167132;27;19966;-49
2022/04/24 14:10:22;;;;;;;;;;;23.00;53.40;;;;;;5166848;27;19907;-50
2022/04/24 14:12:48;;;;;;;;;;;23.00;53.40;;;;;;5167407;27;19911;-48
2022/04/24 14:15:14;;;;;;;;;;;23.00;53.40;;;;;;5166985;27;19947;-48
2022/04/24 14:17:40;;;;;;;;;;;23.00;53.40;;;;;;5166983;27;19918;-51
2022/04/24 14:20:06;;;;;;;;;;;23.00;53.40;;;;;;5167282;27;19920;-48
2022/04/24 14:22:32;;;;;;;;;;;23.00;53.40;;;;;;5166827;27;19914;-48
2022/04/24 14:24:58;;;;;;;;;;;23.10;53.50;;;;;;5165648;27;19915;-49
2022/04/24 14:27:24;;;;;;;;;;;23.00;53.50;;;;;;5166781;27;19985;-48